Time;durP1;ratioP1;P1;durP2;ratioP2;P2;SDS_P1;SDS_P2;PMS_P1;PMS_P2;Temp;Humidity;BMP_temperature;BMP_pressure;BME280_temperature;BME280_humidity;BME280_pressure;Samples;Min_cycle;Max_cycle;Signal;HPM_P1;HPM_P2
2024/04/17 00:00:51;;;;;;;;;;;;;;;;;;5372150;26;19940;-66
2024/04/17 00:03:17;;;;;;;;;;;;;;;;;;5377574;26;20272;-66
2024/04/17 00:05:43;;;;;;;;;;;;;;;;;;5376289;26;19932;-67
2024/04/17 00:08:09;;;;;;;;;;;;;;;;;;5402257;26;19937;-67
2024/04/17 00:10:35;;;;;;;;;;;;;;;;;;5376968;26;19936;-67
2024/04/17 00:13:01;;;;;;;;;;;;;;;;;;5376617;26;19925;-67
2024/04/17 00:15:26;;;;;;;;;;;;;;;;;;5392024;26;20682;-67
2024/04/17 00:17:52;;;;;;;;;;;;;;;;;;5365209;26;19969;-67
2024/04/17 00:20:18;;;;;;;;;;;;;;;;;;5360760;26;19925;-68
2024/04/17 00:22:44;;;;;;;;;;;;;;;;;;5376634;26;19925;-67
2024/04/17 00:25:10;;;;;;;;;;;;;;;;;;5376153;26;19957;-68
2024/04/17 00:27:36;;;;;;;;;;;;;;;;;;5371078;26;20367;-67
2024/04/17 00:30:02;;;;;;;;;;;;;;;;;;5369951;26;19972;-67
2024/04/17 00:32:28;;;;;;;;;;;;;;;;;;5379570;26;19931;-69
2024/04/17 00:34:54;;;;;;;;;;;;;;;;;;5367554;26;19925;-67
2024/04/17 00:37:20;;;;;;;;;;;;;;;;;;5373131;26;19935;-66
2024/04/17 00:39:46;;;;;;;;;;;;;;;;;;5378409;26;19932;-67
2024/04/17 00:42:12;;;;;;;;;;;;;;;;;;5367074;26;19963;-68
2024/04/17 00:44:38;;;;;;;;;;;;;;;;;;5379731;26;19949;-67
2024/04/17 00:47:05;;;;;;;;;;;;;;;;;;5369208;26;20333;-68
2024/04/17 00:49:31;;;;;;;;;;;;;;;;;;5375588;26;19936;-66
2024/04/17 00:51:57;;;;;;;;;;;;;;;;;;5353918;26;19940;-66
2024/04/17 00:54:23;;;;;;;;;;;;;;;;;;5363345;26;20010;-67
2024/04/17 00:56:49;;;;;;;;;;;;;;;;;;5356605;26;19968;-70
2024/04/17 00:59:15;;;;;;;;;;;;;;;;;;5372679;26;19932;-68
2024/04/17 01:01:41;;;;;;;;;;;;;;;;;;5378486;26;19925;-69
2024/04/17 01:04:07;;;;;;;;;;;;;;;;;;5367118;26;20437;-67
2024/04/17 01:06:33;;;;;;;;;;;;;;;;;;5377441;26;19925;-67
2024/04/17 01:08:59;;;;;;;;;;;;;;;;;;5369299;26;19925;-68
2024/04/17 01:11:25;;;;;;;;;;;;;;;;;;5375174;26;20348;-67
2024/04/17 01:13:51;;;;;;;;;;;;;;;;;;5360327;26;19925;-68
2024/04/17 01:16:17;;;;;;;;;;;;;;;;;;5371870;26;19925;-67
2024/04/17 01:18:43;;;;;;;;;;;;;;;;;;5360263;26;19933;-68
2024/04/17 01:21:09;;;;;;;;;;;;;;;;;;5355696;26;19932;-66
2024/04/17 01:23:35;;;;;;;;;;;;;;;;;;5375820;26;19932;-68
2024/04/17 01:26:01;;;;;;;;;;;;;;;;;;5369545;26;19925;-69
2024/04/17 01:28:27;;;;;;;;;;;;;;;;;;5382456;26;19961;-68
2024/04/17 01:30:53;;;;;;;;;;;;;;;;;;5369700;26;20735;-68
2024/04/17 01:33:19;;;;;;;;;;;;;;;;;;5361382;26;19939;-68
2024/04/17 01:35:45;;;;;;;;;;;;;;;;;;5374289;26;20571;-68
2024/04/17 01:38:11;;;;;;;;;;;;;;;;;;5368262;26;20602;-68
2024/04/17 01:40:37;;;;;;;;;;;;;;;;;;5373142;26;20903;-68
2024/04/17 01:43:02;;;;;;;;;;;;;;;;;;5367456;26;19994;-68
2024/04/17 01:45:28;;;;;;;;;;;;;;;;;;5364606;26;20071;-66
2024/04/17 01:47:54;;;;;;;;;;;;;;;;;;5375209;26;19933;-66
2024/04/17 01:50:20;;;;;;;;;;;;;;;;;;5362730;26;19925;-67
2024/04/17 01:52:46;;;;;;;;;;;;;;;;;;5362611;26;20858;-67
2024/04/17 01:55:12;;;;;;;;;;;;;;;;;;5375274;26;19925;-68
2024/04/17 01:57:38;;;;;;;;;;;;;;;;;;5365397;26;20715;-68
2024/04/17 02:00:04;;;;;;;;;;;;;;;;;;5372208;26;19931;-68
2024/04/17 02:02:30;;;;;;;;;;;;;;;;;;5372598;26;20481;-68
2024/04/17 02:04:56;;;;;;;;;;;;;;;;;;5358331;26;19960;-68
2024/04/17 02:07:22;;;;;;;;;;;;;;;;;;5376640;26;21026;-67
2024/04/17 02:09:48;;;;;;;;;;;;;;;;;;5390307;26;19994;-67
2024/04/17 02:12:14;;;;;;;;;;;;;;;;;;5369324;26;19937;-67
2024/04/17 02:14:40;;;;;;;;;;;;;;;;;;5382043;26;19987;-67
2024/04/17 02:17:06;;;;;;;;;;;;;;;;;;5355440;26;19925;-67
2024/04/17 02:19:32;;;;;;;;;;;;;;;;;;5361598;26;20298;-67
2024/04/17 02:21:58;;;;;;;;;;;;;;;;;;5366845;26;19951;-68
2024/04/17 02:24:24;;;;;;;;;;;;;;;;;;5371862;26;19940;-67
2024/04/17 02:26:50;;;;;;;;;;;;;;;;;;5369302;26;20678;-67
2024/04/17 02:29:16;;;;;;;;;;;;;;;;;;5377050;26;20259;-67
2024/04/17 02:31:42;;;;;;;;;;;;;;;;;;5360340;26;19973;-68
2024/04/17 02:34:08;;;;;;;;;;;;;;;;;;5380515;26;19954;-67
2024/04/17 02:36:34;;;;;;;;;;;;;;;;;;5379573;26;19924;-68
2024/04/17 02:39:00;;;;;;;;;;;;;;;;;;5386475;26;20769;-67
2024/04/17 02:41:26;;;;;;;;;;;;;;;;;;5377632;26;20423;-65
2024/04/17 02:43:52;;;;;;;;;;;;;;;;;;5367412;26;19997;-69
2024/04/17 02:46:17;;;;;;;;;;;;;;;;;;5363259;26;19925;-68
2024/04/17 02:48:43;;;;;;;;;;;;;;;;;;5375459;26;19948;-67
2024/04/17 02:51:09;;;;;;;;;;;;;;;;;;5366710;26;19933;-68
2024/04/17 02:53:35;;;;;;;;;;;;;;;;;;5367612;26;19968;-68
2024/04/17 02:56:01;;;;;;;;;;;;;;;;;;5370147;26;19925;-66
2024/04/17 02:58:27;;;;;;;;;;;;;;;;;;5363397;26;20703;-69
2024/04/17 03:00:53;;;;;;;;;;;;;;;;;;5365664;26;20330;-66
2024/04/17 03:03:19;;;;;;;;;;;;;;;;;;5386098;26;19925;-66
2024/04/17 03:05:45;;;;;;;;;;;;;;;;;;5395070;26;19987;-66
2024/04/17 03:08:11;;;;;;;;;;;;;;;;;;5372186;26;20384;-67
2024/04/17 03:10:37;;;;;;;;;;;;;;;;;;5376032;26;20002;-66
2024/04/17 03:13:03;;;;;;;;;;;;;;;;;;5372246;26;19965;-68
2024/04/17 03:15:29;;;;;;;;;;;;;;;;;;5365133;26;20888;-68
2024/04/17 03:17:55;;;;;;;;;;;;;;;;;;5388974;26;19924;-68
2024/04/17 03:20:21;;;;;;;;;;;;;;;;;;5360808;26;19980;-69
2024/04/17 03:22:47;;;;;;;;;;;;;;;;;;5360832;26;19932;-68
2024/04/17 03:25:13;;;;;;;;;;;;;;;;;;5367708;26;20465;-69
2024/04/17 03:27:38;;;;;;;;;;;;;;;;;;5370245;26;19966;-68
2024/04/17 03:30:04;;;;;;;;;;;;;;;;;;5356463;26;19973;-68
2024/04/17 03:32:30;;;;;;;;;;;;;;;;;;5395481;26;19924;-67
2024/04/17 03:34:56;;;;;;;;;;;;;;;;;;5377012;26;20375;-67
2024/04/17 03:37:22;;;;;;;;;;;;;;;;;;5378893;26;19937;-67
2024/04/17 03:39:48;;;;;;;;;;;;;;;;;;5372612;26;19925;-67
2024/04/17 03:42:14;;;;;;;;;;;;;;;;;;5365568;26;20051;-67
2024/04/17 03:44:40;;;;;;;;;;;;;;;;;;5379103;26;19932;-67
2024/04/17 03:47:06;;;;;;;;;;;;;;;;;;5374095;26;20819;-67
2024/04/17 03:49:32;;;;;;;;;;;;;;;;;;5382559;26;20499;-67
2024/04/17 03:51:58;;;;;;;;;;;;;;;;;;5376622;26;19924;-68
2024/04/17 03:54:24;;;;;;;;;;;;;;;;;;5373028;26;19929;-67
2024/04/17 03:56:50;;;;;;;;;;;;;;;;;;5390625;26;19933;-67
2024/04/17 03:59:16;;;;;;;;;;;;;;;;;;5369380;26;19940;-67
2024/04/17 04:01:42;;;;;;;;;;;;;;;;;;5383882;26;19933;-67
2024/04/17 04:04:08;;;;;;;;;;;;;;;;;;5351312;26;19929;-67
2024/04/17 04:06:34;;;;;;;;;;;;;;;;;;5379862;26;20349;-67
2024/04/17 04:08:59;;;;;;;;;;;;;;;;;;5369981;26;19936;-68
2024/04/17 04:11:25;;;;;;;;;;;;;;;;;;5377442;26;20014;-67
2024/04/17 04:13:52;;;;;;;;;;;;;;;;;;5372964;26;19932;-68
2024/04/17 04:16:18;;;;;;;;;;;;;;;;;;5378477;26;20634;-68
2024/04/17 04:18:44;;;;;;;;;;;;;;;;;;5376440;26;19936;-68
2024/04/17 04:21:10;;;;;;;;;;;;;;;;;;5344870;26;21215;-68
2024/04/17 04:23:36;;;;;;;;;;;;;;;;;;5383150;26;19953;-68
2024/04/17 04:26:02;;;;;;;;;;;;;;;;;;5375357;26;20345;-68
2024/04/17 04:28:28;;;;;;;;;;;;;;;;;;5381467;26;20815;-68
2024/04/17 04:30:55;;;;;;;;;;;;;;;;;;5372215;26;20535;-68
2024/04/17 04:33:21;;;;;;;;;;;;;;;;;;5390654;26;19924;-66
2024/04/17 04:35:47;;;;;;;;;;;;;;;;;;5373903;26;19932;-68
2024/04/17 04:38:13;;;;;;;;;;;;;;;;;;5367161;26;20500;-66
2024/04/17 04:40:39;;;;;;;;;;;;;;;;;;5374634;26;19932;-68
2024/04/17 04:43:07;;;;;;;;;;;;;;;;;;5372957;26;19964;-65
2024/04/17 04:45:33;;;;;;;;;;;;;;;;;;5377314;26;19932;-67
2024/04/17 04:47:59;;;;;;;;;;;;;;;;;;5373788;26;20671;-68
2024/04/17 04:50:25;;;;;;;;;;;;;;;;;;5363341;26;20009;-67
2024/04/17 04:52:51;;;;;;;;;;;;;;;;;;5362593;26;20754;-66
2024/04/17 04:55:17;;;;;;;;;;;;;;;;;;5375395;26;19933;-67
2024/04/17 04:57:43;;;;;;;;;;;;;;;;;;5372005;26;22383;-66
2024/04/17 05:00:08;;;;;;;;;;;;;;;;;;5369564;26;20006;-66
2024/04/17 05:02:34;;;;;;;;;;;;;;;;;;5380903;26;19925;-66
2024/04/17 05:05:01;;;;;;;;;;;;;;;;;;5365636;26;19939;-68
2024/04/17 05:07:27;;;;;;;;;;;;;;;;;;5372226;26;20407;-66
2024/04/17 05:09:53;;;;;;;;;;;;;;;;;;5371116;26;19933;-67
2024/04/17 05:12:19;;;;;;;;;;;;;;;;;;5380850;26;20670;-66
2024/04/17 05:14:45;;;;;;;;;;;;;;;;;;5361327;26;20509;-67
2024/04/17 05:17:11;;;;;;;;;;;;;;;;;;5372212;26;20915;-67
2024/04/17 05:19:37;;;;;;;;;;;;;;;;;;5361209;26;20283;-67
2024/04/17 05:22:03;;;;;;;;;;;;;;;;;;5376791;26;19943;-66
2024/04/17 05:24:29;;;;;;;;;;;;;;;;;;5362476;26;19944;-66
2024/04/17 05:26:55;;;;;;;;;;;;;;;;;;5375211;26;20505;-66
2024/04/17 05:29:21;;;;;;;;;;;;;;;;;;5394538;26;21102;-66
2024/04/17 05:31:46;;;;;;;;;;;;;;;;;;5377317;26;19944;-66
2024/04/17 05:34:12;;;;;;;;;;;;;;;;;;5370160;26;20381;-66
2024/04/17 05:36:38;;;;;;;;;;;;;;;;;;5378981;26;19924;-66
2024/04/17 05:39:04;;;;;;;;;;;;;;;;;;5375526;26;19932;-66
2024/04/17 05:41:30;;;;;;;;;;;;;;;;;;5396782;26;20501;-66
2024/04/17 05:43:56;;;;;;;;;;;;;;;;;;5375510;26;19925;-69
2024/04/17 05:46:25;;;;;;;;;;;;;;;;;;5381726;26;19939;-67
2024/04/17 05:48:51;;;;;;;;;;;;;;;;;;5363266;26;19991;-66
2024/04/17 05:51:17;;;;;;;;;;;;;;;;;;5376276;26;19925;-66
2024/04/17 05:53:43;;;;;;;;;;;;;;;;;;5354543;26;19936;-66
2024/04/17 05:56:08;;;;;;;;;;;;;;;;;;5370965;26;20630;-68
2024/04/17 05:58:34;;;;;;;;;;;;;;;;;;5394700;26;19969;-68
2024/04/17 06:01:00;;;;;;;;;;;;;;;;;;5372268;26;19932;-66
2024/04/17 06:03:26;;;;;;;;;;;;;;;;;;5369948;26;19965;-68
2024/04/17 06:05:52;;;;;;;;;;;;;;;;;;5366562;26;19926;-65
2024/04/17 06:08:18;;;;;;;;;;;;;;;;;;5373389;26;20810;-68
2024/04/17 06:10:44;;;;;;;;;;;;;;;;;;5375730;26;19939;-68
2024/04/17 06:13:10;;;;;;;;;;;;;;;;;;5357718;26;20003;-68
2024/04/17 06:15:36;;;;;;;;;;;;;;;;;;5366724;26;19924;-67
2024/04/17 06:18:02;;;;;;;;;;;;;;;;;;5355676;26;19925;-67
2024/04/17 06:20:28;;;;;;;;;;;;;;;;;;5370095;26;20660;-68
2024/04/17 06:22:54;;;;;;;;;;;;;;;;;;5362798;26;19969;-68
2024/04/17 06:25:20;;;;;;;;;;;;;;;;;;5372661;26;19933;-68
2024/04/17 06:27:46;;;;;;;;;;;;;;;;;;5389837;26;19931;-68
2024/04/17 06:30:12;;;;;;;;;;;;;;;;;;5358438;26;19928;-68
2024/04/17 06:32:38;;;;;;;;;;;;;;;;;;5371096;26;19925;-68
2024/04/17 06:35:04;;;;;;;;;;;;;;;;;;5388615;26;19929;-68
2024/04/17 06:37:30;;;;;;;;;;;;;;;;;;5369914;26;19925;-68
2024/04/17 06:39:56;;;;;;;;;;;;;;;;;;5359556;26;19925;-68
2024/04/17 06:42:22;;;;;;;;;;;;;;;;;;5359568;26;19925;-67
2024/04/17 06:44:48;;;;;;;;;;;;;;;;;;5366707;26;19932;-68
2024/04/17 06:47:14;;;;;;;;;;;;;;;;;;5367743;26;19933;-68
2024/04/17 06:49:40;;;;;;;;;;;;;;;;;;5361212;26;20393;-68
2024/04/17 06:52:06;;;;;;;;;;;;;;;;;;5366904;26;19925;-67
2024/04/17 06:54:32;;;;;;;;;;;;;;;;;;5369998;26;20005;-68
2024/04/17 06:56:58;;;;;;;;;;;;;;;;;;5367165;26;19926;-67
2024/04/17 06:59:24;;;;;;;;;;;;;;;;;;5389890;26;19989;-68
2024/04/17 07:01:50;;;;;;;;;;;;;;;;;;5398135;26;19933;-68
2024/04/17 07:04:16;;;;;;;;;;;;;;;;;;5365574;26;19944;-68
2024/04/17 07:06:42;;;;;;;;;;;;;;;;;;5384687;26;20481;-68
2024/04/17 07:09:07;;;;;;;;;;;;;;;;;;5361833;26;20728;-68
2024/04/17 07:11:33;;;;;;;;;;;;;;;;;;5400490;26;19930;-68
2024/04/17 07:13:59;;;;;;;;;;;;;;;;;;5372958;26;19940;-68
2024/04/17 07:16:25;;;;;;;;;;;;;;;;;;5366284;26;20699;-68
2024/04/17 07:18:51;;;;;;;;;;;;;;;;;;5359487;26;20436;-68
2024/04/17 07:21:17;;;;;;;;;;;;;;;;;;5368614;26;19977;-68
2024/04/17 07:23:43;;;;;;;;;;;;;;;;;;5378969;26;19924;-68
2024/04/17 07:26:09;;;;;;;;;;;;;;;;;;5368864;26;19936;-68
2024/04/17 07:28:35;;;;;;;;;;;;;;;;;;5368159;26;19966;-69
2024/04/17 07:31:01;;;;;;;;;;;;;;;;;;5369127;26;19936;-70
2024/04/17 07:33:27;;;;;;;;;;;;;;;;;;5372821;26;19933;-68
2024/04/17 07:35:53;;;;;;;;;;;;;;;;;;5389870;26;19929;-68
2024/04/17 07:38:19;;;;;;;;;;;;;;;;;;5365645;26;19943;-68
2024/04/17 07:40:45;;;;;;;;;;;;;;;;;;5369877;26;19932;-66
2024/04/17 07:43:11;;;;;;;;;;;;;;;;;;5360390;26;19957;-68
2024/04/17 07:45:37;;;;;;;;;;;;;;;;;;5365592;26;20356;-68
2024/04/17 07:48:03;;;;;;;;;;;;;;;;;;5372717;26;20568;-68
2024/04/17 07:50:29;;;;;;;;;;;;;;;;;;5359690;26;19925;-68
2024/04/17 07:52:55;;;;;;;;;;;;;;;;;;5366581;26;19946;-69
2024/04/17 07:55:21;;;;;;;;;;;;;;;;;;5376067;26;19925;-68
2024/04/17 07:57:47;;;;;;;;;;;;;;;;;;5377638;26;21414;-68
2024/04/17 08:00:13;;;;;;;;;;;;;;;;;;5360442;26;20280;-68
2024/04/17 08:02:39;;;;;;;;;;;;;;;;;;5378400;26;19929;-68
2024/04/17 08:05:05;;;;;;;;;;;;;;;;;;5358465;26;19924;-68
2024/04/17 08:07:31;;;;;;;;;;;;;;;;;;5368349;26;19949;-68
2024/04/17 08:09:58;;;;;;;;;;;;;;;;;;5373667;26;19939;-68
2024/04/17 08:12:24;;;;;;;;;;;;;;;;;;5374874;26;19943;-68
2024/04/17 08:14:51;;;;;;;;;;;;;;;;;;5376808;26;20799;-68
2024/04/17 08:17:17;;;;;;;;;;;;;;;;;;5370915;26;19925;-68
2024/04/17 08:19:42;;;;;;;;;;;;;;;;;;5395860;26;19925;-68
2024/04/17 08:22:08;;;;;;;;;;;;;;;;;;5371350;26;20028;-69
2024/04/17 08:24:34;;;;;;;;;;;;;;;;;;5376339;26;19956;-69
2024/04/17 08:27:00;;;;;;;;;;;;;;;;;;5363803;26;19932;-68
2024/04/17 08:29:26;;;;;;;;;;;;;;;;;;5380738;26;19989;-68
2024/04/17 08:31:52;;;;;;;;;;;;;;;;;;5376326;26;19940;-68
2024/04/17 08:34:18;;;;;;;;;;;;;;;;;;5373473;26;19991;-69
2024/04/17 08:36:44;;;;;;;;;;;;;;;;;;5364005;26;19994;-71
2024/04/17 08:39:10;;;;;;;;;;;;;;;;;;5374331;26;21376;-70
2024/04/17 08:41:36;;;;;;;;;;;;;;;;;;5377849;26;20669;-68
2024/04/17 08:44:02;;;;;;;;;;;;;;;;;;5357721;26;20481;-70
2024/04/17 08:46:28;;;;;;;;;;;;;;;;;;5364375;26;19925;-69
2024/04/17 08:48:54;;;;;;;;;;;;;;;;;;5362237;26;19925;-68
2024/04/17 08:51:20;;;;;;;;;;;;;;;;;;5366779;26;20481;-68
2024/04/17 08:53:46;;;;;;;;;;;;;;;;;;5379142;26;19945;-69
2024/04/17 08:56:12;;;;;;;;;;;;;;;;;;5369252;26;20261;-69
2024/04/17 08:58:38;;;;;;;;;;;;;;;;;;5374579;26;19925;-68
2024/04/17 09:01:04;;;;;;;;;;;;;;;;;;5369306;26;20478;-68
2024/04/17 09:03:30;;;;;;;;;;;;;;;;;;5359607;26;19925;-71
2024/04/17 09:05:56;;;;;;;;;;;;;;;;;;5371107;26;19951;-68
2024/04/17 09:08:22;;;;;;;;;;;;;;;;;;5366243;26;19925;-68
2024/04/17 09:10:48;;;;;;;;;;;;;;;;;;5367057;26;19932;-68
2024/04/17 09:13:13;;;;;;;;;;;;;;;;;;5367342;26;19939;-68
2024/04/17 09:15:40;;;;;;;;;;;;;;;;;;5399688;26;19925;-68
2024/04/17 09:18:06;;;;;;;;;;;;;;;;;;5361094;26;19957;-68
2024/04/17 09:20:31;;;;;;;;;;;;;;;;;;5370273;26;19925;-68
2024/04/17 09:22:57;;;;;;;;;;;;;;;;;;5365842;26;19937;-68
2024/04/17 09:25:23;;;;;;;;;;;;;;;;;;5375189;26;19931;-68
2024/04/17 09:27:49;;;;;;;;;;;;;;;;;;5370555;26;21002;-68
2024/04/17 09:30:15;;;;;;;;;;;;;;;;;;5375549;26;19952;-68
2024/04/17 09:32:41;;;;;;;;;;;;;;;;;;5377803;26;19925;-68
2024/04/17 09:35:07;;;;;;;;;;;;;;;;;;5364930;26;19925;-68
2024/04/17 09:37:33;;;;;;;;;;;;;;;;;;5375272;26;19924;-67
2024/04/17 09:39:59;;;;;;;;;;;;;;;;;;5372933;26;19944;-68
2024/04/17 09:42:25;;;;;;;;;;;;;;;;;;5365233;26;20141;-68
2024/04/17 09:44:51;;;;;;;;;;;;;;;;;;5375457;26;20395;-68
2024/04/17 09:47:17;;;;;;;;;;;;;;;;;;5375103;26;19976;-67
2024/04/17 09:49:43;;;;;;;;;;;;;;;;;;5368353;26;19925;-68
2024/04/17 09:52:09;;;;;;;;;;;;;;;;;;5364814;26;23330;-67
2024/04/17 09:54:35;;;;;;;;;;;;;;;;;;5369662;26;20807;-67
2024/04/17 09:57:01;;;;;;;;;;;;;;;;;;5368778;26;19941;-67
2024/04/17 09:59:27;;;;;;;;;;;;;;;;;;5361776;26;19932;-67
2024/04/17 10:01:53;;;;;;;;;;;;;;;;;;5362857;26;19925;-66
2024/04/17 10:04:19;;;;;;;;;;;;;;;;;;5363153;26;20871;-68
2024/04/17 10:06:45;;;;;;;;;;;;;;;;;;5387767;26;19924;-68
2024/04/17 10:09:11;;;;;;;;;;;;;;;;;;5352150;26;20774;-68
2024/04/17 10:11:37;;;;;;;;;;;;;;;;;;5377737;26;19925;-68
2024/04/17 10:14:03;;;;;;;;;;;;;;;;;;5368169;26;20002;-68
2024/04/17 10:16:29;;;;;;;;;;;;;;;;;;5374092;26;19925;-68
2024/04/17 10:18:55;;;;;;;;;;;;;;;;;;5362869;26;21196;-68
2024/04/17 10:21:21;;;;;;;;;;;;;;;;;;5380319;26;19932;-66
2024/04/17 10:23:47;;;;;;;;;;;;;;;;;;5378404;26;19993;-66
2024/04/17 10:26:13;;;;;;;;;;;;;;;;;;5364709;26;19941;-68
2024/04/17 10:28:39;;;;;;;;;;;;;;;;;;5385083;26;19932;-66
2024/04/17 10:31:05;;;;;;;;;;;;;;;;;;5359880;26;20844;-68
2024/04/17 10:33:31;;;;;;;;;;;;;;;;;;5379016;26;19925;-66
2024/04/17 10:35:57;;;;;;;;;;;;;;;;;;5366312;26;20455;-68
2024/04/17 10:38:24;;;;;;;;;;;;;;;;;;5369929;26;19936;-68
2024/04/17 10:40:50;;;;;;;;;;;;;;;;;;5367593;26;19925;-66
2024/04/17 10:43:16;;;;;;;;;;;;;;;;;;5360785;26;20256;-66
2024/04/17 10:45:42;;;;;;;;;;;;;;;;;;5369885;26;19925;-68
2024/04/17 10:48:08;;;;;;;;;;;;;;;;;;5368050;26;19961;-68
2024/04/17 10:50:34;;;;;;;;;;;;;;;;;;5386079;26;19929;-70
2024/04/17 10:53:00;;;;;;;;;;;;;;;;;;5352728;26;19936;-71
2024/04/17 10:55:26;;;;;;;;;;;;;;;;;;5364315;26;19932;-72
2024/04/17 10:57:52;;;;;;;;;;;;;;;;;;5351698;26;20462;-71
2024/04/17 11:00:18;;;;;;;;;;;;;;;;;;5363013;26;19928;-71
2024/04/17 11:02:44;;;;;;;;;;;;;;;;;;5372402;26;19925;-70
2024/04/17 11:05:10;;;;;;;;;;;;;;;;;;5366793;26;22267;-72
2024/04/17 11:07:36;;;;;;;;;;;;;;;;;;5367459;26;19940;-71
2024/04/17 11:10:02;;;;;;;;;;;;;;;;;;5369638;26;19960;-70
2024/04/17 11:12:28;;;;;;;;;;;;;;;;;;5370632;26;20395;-71
2024/04/17 11:14:54;;;;;;;;;;;;;;;;;;5362538;26;19933;-71
2024/04/17 11:17:20;;;;;;;;;;;;;;;;;;5371268;26;20706;-71
2024/04/17 11:19:46;;;;;;;;;;;;;;;;;;5393927;26;20401;-71
2024/04/17 11:22:12;;;;;;;;;;;;;;;;;;5362868;26;19932;-71
2024/04/17 11:24:38;;;;;;;;;;;;;;;;;;5373537;26;19933;-72
2024/04/17 11:27:04;;;;;;;;;;;;;;;;;;5368233;26;19938;-71
2024/04/17 11:29:30;;;;;;;;;;;;;;;;;;5363931;26;19983;-71
2024/04/17 11:31:56;;;;;;;;;;;;;;;;;;5361591;26;20074;-71
2024/04/17 11:34:23;;;;;;;;;;;;;;;;;;5371258;26;19932;-71
2024/04/17 11:36:49;;;;;;;;;;;;;;;;;;5372997;26;19925;-71
2024/04/17 11:39:15;;;;;;;;;;;;;;;;;;5368314;26;19925;-71
2024/04/17 11:41:40;;;;;;;;;;;;;;;;;;5373838;26;19932;-71
2024/04/17 11:44:06;;;;;;;;;;;;;;;;;;5356042;26;20010;-70
2024/04/17 11:46:32;;;;;;;;;;;;;;;;;;5369248;26;19953;-71
2024/04/17 11:48:58;;;;;;;;;;;;;;;;;;5366106;26;19925;-71
2024/04/17 11:51:24;;;;;;;;;;;;;;;;;;5367394;26;19956;-70
2024/04/17 11:53:50;;;;;;;;;;;;;;;;;;5369774;26;19931;-71
2024/04/17 11:56:16;;;;;;;;;;;;;;;;;;5360360;26;19949;-72
2024/04/17 11:58:45;;;;;;;;;;;;;;;;;;5368260;26;20278;-71
2024/04/17 12:01:11;;;;;;;;;;;;;;;;;;5348435;26;19939;-71
2024/04/17 12:03:37;;;;;;;;;;;;;;;;;;5369479;26;19977;-71
2024/04/17 12:06:03;;;;;;;;;;;;;;;;;;5370263;26;19924;-72
2024/04/17 12:08:29;;;;;;;;;;;;;;;;;;5375575;26;20328;-71
2024/04/17 12:10:55;;;;;;;;;;;;;;;;;;5354904;26;19939;-71
2024/04/17 12:13:21;;;;;;;;;;;;;;;;;;5369709;26;19997;-71
2024/04/17 12:15:47;;;;;;;;;;;;;;;;;;5348820;26;19932;-70
2024/04/17 12:18:14;;;;;;;;;;;;;;;;;;5355130;26;19925;-70
2024/04/17 12:20:40;;;;;;;;;;;;;;;;;;5362998;26;19993;-72
2024/04/17 12:23:06;;;;;;;;;;;;;;;;;;5353311;26;19925;-71
2024/04/17 12:28:16;;;;;;;;;;;;;;;;;;5365485;26;19928;-71
2024/04/17 12:30:42;;;;;;;;;;;;;;;;;;5363894;26;19925;-71
2024/04/17 12:33:08;;;;;;;;;;;;;;;;;;5362227;26;19941;-72
2024/04/17 12:35:34;;;;;;;;;;;;;;;;;;5364849;26;19924;-71
2024/04/17 12:38:00;;;;;;;;;;;;;;;;;;5351656;26;20388;-71
2024/04/17 12:40:26;;;;;;;;;;;;;;;;;;5361872;26;19933;-71
2024/04/17 12:42:52;;;;;;;;;;;;;;;;;;5359961;26;19925;-70
2024/04/17 12:45:18;;;;;;;;;;;;;;;;;;5355509;26;21717;-71
2024/04/17 12:47:44;;;;;;;;;;;;;;;;;;5360600;26;19931;-70
2024/04/17 12:50:10;;;;;;;;;;;;;;;;;;5352153;26;19937;-72
2024/04/17 12:52:36;;;;;;;;;;;;;;;;;;5370276;26;19930;-71
2024/04/17 12:55:02;;;;;;;;;;;;;;;;;;5368626;26;20359;-71
2024/04/17 12:57:28;;;;;;;;;;;;;;;;;;5365243;26;19940;-71
2024/04/17 12:59:54;;;;;;;;;;;;;;;;;;5366468;26;19925;-72
2024/04/17 13:02:20;;;;;;;;;;;;;;;;;;5376163;26;19925;-72
2024/04/17 13:04:46;;;;;;;;;;;;;;;;;;5356553;26;19925;-71
2024/04/17 13:07:12;;;;;;;;;;;;;;;;;;5361232;26;20322;-72
2024/04/17 13:09:38;;;;;;;;;;;;;;;;;;5359191;26;20096;-71
2024/04/17 13:12:04;;;;;;;;;;;;;;;;;;5367666;26;19964;-71
2024/04/17 13:14:30;;;;;;;;;;;;;;;;;;5372280;26;19925;-72
2024/04/17 13:16:55;;;;;;;;;;;;;;;;;;5366394;26;19924;-71
2024/04/17 13:19:21;;;;;;;;;;;;;;;;;;5376962;26;19961;-71
2024/04/17 13:21:47;;;;;;;;;;;;;;;;;;5394834;26;19936;-70
2024/04/17 13:24:13;;;;;;;;;;;;;;;;;;5387730;26;20259;-72
2024/04/17 13:26:39;;;;;;;;;;;;;;;;;;5371618;26;20619;-70
2024/04/17 13:29:07;;;;;;;;;;;;;;;;;;5361419;26;19925;-70
2024/04/17 13:31:33;;;;;;;;;;;;;;;;;;5367777;26;20440;-71
2024/04/17 13:33:59;;;;;;;;;;;;;;;;;;5365734;26;19931;-71
2024/04/17 13:36:25;;;;;;;;;;;;;;;;;;5370983;26;20612;-71
2024/04/17 13:38:52;;;;;;;;;;;;;;;;;;5367450;26;19932;-70
2024/04/17 13:41:18;;;;;;;;;;;;;;;;;;5362708;26;19925;-71
2024/04/17 13:43:44;;;;;;;;;;;;;;;;;;5368041;26;19936;-71
2024/04/17 13:46:10;;;;;;;;;;;;;;;;;;5373078;26;19944;-71
2024/04/17 13:48:36;;;;;;;;;;;;;;;;;;5375044;26;20001;-71
2024/04/17 13:51:02;;;;;;;;;;;;;;;;;;5363468;26;19944;-70
2024/04/17 13:53:28;;;;;;;;;;;;;;;;;;5375938;26;19933;-70
2024/04/17 13:55:54;;;;;;;;;;;;;;;;;;5391922;26;19933;-72
2024/04/17 13:58:20;;;;;;;;;;;;;;;;;;5374968;26;19932;-71
2024/04/17 14:00:46;;;;;;;;;;;;;;;;;;5400691;26;19931;-71
2024/04/17 14:03:12;;;;;;;;;;;;;;;;;;5371595;26;19941;-71
2024/04/17 14:05:38;;;;;;;;;;;;;;;;;;5362191;26;19933;-71
2024/04/17 14:08:04;;;;;;;;;;;;;;;;;;5373519;26;20003;-71
2024/04/17 14:10:30;;;;;;;;;;;;;;;;;;5366762;26;19925;-71
2024/04/17 14:12:56;;;;;;;;;;;;;;;;;;5379346;26;20372;-71
2024/04/17 14:15:21;;;;;;;;;;;;;;;;;;5372499;26;20372;-71
2024/04/17 14:17:47;;;;;;;;;;;;;;;;;;5376799;26;19940;-71
2024/04/17 14:20:13;;;;;;;;;;;;;;;;;;5369634;26;19926;-71
2024/04/17 14:22:39;;;;;;;;;;;;;;;;;;5370475;26;20445;-71
2024/04/17 14:25:05;;;;;;;;;;;;;;;;;;5373013;26;19925;-71
2024/04/17 14:27:31;;;;;;;;;;;;;;;;;;5378884;26;20018;-71
2024/04/17 14:29:57;;;;;;;;;;;;;;;;;;5369521;26;20014;-70
2024/04/17 14:32:23;;;;;;;;;;;;;;;;;;5377888;26;19984;-71
2024/04/17 14:34:49;;;;;;;;;;;;;;;;;;5389520;26;20277;-70
2024/04/17 14:37:15;;;;;;;;;;;;;;;;;;5372124;26;20393;-71
2024/04/17 14:39:41;;;;;;;;;;;;;;;;;;5380397;26;19932;-71
2024/04/17 14:42:07;;;;;;;;;;;;;;;;;;5365599;26;19932;-71
2024/04/17 14:44:34;;;;;;;;;;;;;;;;;;5377400;26;19932;-70
2024/04/17 14:47:00;;;;;;;;;;;;;;;;;;5373155;26;19977;-71
2024/04/17 14:49:25;;;;;;;;;;;;;;;;;;5397160;26;19925;-71
2024/04/17 14:51:51;;;;;;;;;;;;;;;;;;5373392;26;19936;-71
2024/04/17 14:54:17;;;;;;;;;;;;;;;;;;5368693;26;20345;-71
2024/04/17 14:56:43;;;;;;;;;;;;;;;;;;5361109;26;20783;-71
2024/04/17 14:59:09;;;;;;;;;;;;;;;;;;5373496;26;20950;-70
2024/04/17 15:01:38;;;;;;;;;;;;;;;;;;5377745;26;19925;-71
2024/04/17 15:04:04;;;;;;;;;;;;;;;;;;5357996;26;19929;-70
2024/04/17 15:06:30;;;;;;;;;;;;;;;;;;5381034;26;20151;-71
2024/04/17 15:08:56;;;;;;;;;;;;;;;;;;5366933;26;19933;-71
2024/04/17 15:11:22;;;;;;;;;;;;;;;;;;5375149;26;19925;-70
2024/04/17 15:13:48;;;;;;;;;;;;;;;;;;5375629;26;19936;-71
2024/04/17 15:16:14;;;;;;;;;;;;;;;;;;5372430;26;19933;-71
2024/04/17 15:18:40;;;;;;;;;;;;;;;;;;5373259;26;20713;-71
2024/04/17 15:21:06;;;;;;;;;;;;;;;;;;5390044;26;20446;-71
2024/04/17 15:23:32;;;;;;;;;;;;;;;;;;5362704;26;20010;-71
2024/04/17 15:25:58;;;;;;;;;;;;;;;;;;5371459;26;20921;-71
2024/04/17 15:28:24;;;;;;;;;;;;;;;;;;5381759;26;19931;-71
2024/04/17 15:30:50;;;;;;;;;;;;;;;;;;5379711;26;20523;-71
2024/04/17 15:33:16;;;;;;;;;;;;;;;;;;5356256;26;21224;-72
2024/04/17 15:35:42;;;;;;;;;;;;;;;;;;5376894;26;20002;-71
2024/04/17 15:38:08;;;;;;;;;;;;;;;;;;5358200;26;19925;-73
2024/04/17 15:40:34;;;;;;;;;;;;;;;;;;5376198;26;19932;-74
2024/04/17 15:42:59;;;;;;;;;;;;;;;;;;5371593;26;19929;-75
2024/04/17 15:45:25;;;;;;;;;;;;;;;;;;5386575;26;20379;-72
2024/04/17 15:47:51;;;;;;;;;;;;;;;;;;5368385;26;20010;-72
2024/04/17 15:50:17;;;;;;;;;;;;;;;;;;5365249;26;19997;-71
2024/04/17 15:52:43;;;;;;;;;;;;;;;;;;5367725;26;19930;-73
2024/04/17 15:55:09;;;;;;;;;;;;;;;;;;5373865;26;19937;-70
2024/04/17 15:57:35;;;;;;;;;;;;;;;;;;5374406;26;19936;-71
2024/04/17 16:00:01;;;;;;;;;;;;;;;;;;5359859;26;19925;-71
2024/04/17 16:02:28;;;;;;;;;;;;;;;;;;5374878;26;20383;-71
2024/04/17 16:04:54;;;;;;;;;;;;;;;;;;5356733;26;19925;-70
2024/04/17 16:07:20;;;;;;;;;;;;;;;;;;5360921;26;19943;-72
2024/04/17 16:09:46;;;;;;;;;;;;;;;;;;5379653;26;19939;-71
2024/04/17 16:12:12;;;;;;;;;;;;;;;;;;5365907;26;19941;-71
2024/04/17 16:14:38;;;;;;;;;;;;;;;;;;5378393;26;20440;-71
2024/04/17 16:17:04;;;;;;;;;;;;;;;;;;5372387;26;20881;-71
2024/04/17 16:19:31;;;;;;;;;;;;;;;;;;5355286;26;19945;-71
2024/04/17 16:21:57;;;;;;;;;;;;;;;;;;5366449;26;19933;-72
2024/04/17 16:24:23;;;;;;;;;;;;;;;;;;5371238;26;19925;-72
2024/04/17 16:26:49;;;;;;;;;;;;;;;;;;5378393;26;19940;-71
2024/04/17 16:29:15;;;;;;;;;;;;;;;;;;5366537;26;20845;-71
2024/04/17 16:31:41;;;;;;;;;;;;;;;;;;5379598;26;19932;-71
2024/04/17 16:34:07;;;;;;;;;;;;;;;;;;5375362;26;19933;-71
2024/04/17 16:36:33;;;;;;;;;;;;;;;;;;5371157;26;20260;-71
2024/04/17 16:38:59;;;;;;;;;;;;;;;;;;5356702;26;19957;-70